createdAt,value
2023-03-01T00:01:40.984Z,5.10
2023-03-01T00:04:07.943Z,5.10
2023-03-01T00:06:34.859Z,5.10
2023-03-01T00:09:01.659Z,5.10
2023-03-01T00:11:33.065Z,5.10
2023-03-01T00:14:02.506Z,5.10
2023-03-01T00:16:40.527Z,5.00
2023-03-01T00:19:13.298Z,5.10
2023-03-01T00:21:40.972Z,5.10
2023-03-01T00:24:09.093Z,5.10
2023-03-01T00:26:36.140Z,5.10
2023-03-01T00:29:03.131Z,5.10
2023-03-01T00:31:33.651Z,5.10
2023-03-01T00:34:04.684Z,5.10
2023-03-01T00:36:36.664Z,5.10
2023-03-01T00:39:06.281Z,5.10
2023-03-01T00:41:34.942Z,5.10
2023-03-01T00:44:01.798Z,5.10
2023-03-01T00:46:31.372Z,5.10
2023-03-01T00:48:59.032Z,5.10
2023-03-01T00:51:28.625Z,5.10
2023-03-01T00:53:58.552Z,5.10
2023-03-01T00:56:26.208Z,5.10
2023-03-01T00:58:53.077Z,5.10
2023-03-01T01:01:28.243Z,5.10
2023-03-01T01:04:09.500Z,5.10
2023-03-01T01:06:43.549Z,5.10
2023-03-01T01:09:17.946Z,5.10
2023-03-01T01:11:50.922Z,5.10
2023-03-01T01:14:19.595Z,5.10
2023-03-01T01:16:46.530Z,5.00
2023-03-01T01:19:14.472Z,5.10
2023-03-01T01:21:44.197Z,5.00
2023-03-01T01:24:12.387Z,5.00
2023-03-01T01:26:39.286Z,5.00
2023-03-01T01:29:07.064Z,5.10
2023-03-01T01:31:35.911Z,5.00
2023-03-01T01:34:05.828Z,5.10
2023-03-01T01:36:33.968Z,5.00
2023-03-01T01:39:01.599Z,5.00
2023-03-01T01:41:30.125Z,5.10
2023-03-01T01:44:27.895Z,5.10
2023-03-01T01:46:59.262Z,5.00
2023-03-01T01:49:34.943Z,5.10
2023-03-01T01:52:19.168Z,5.00
2023-03-01T01:54:54.462Z,5.00
2023-03-01T01:57:28.413Z,5.00
2023-03-01T02:00:01.345Z,5.00
2023-03-01T02:02:28.594Z,5.00
2023-03-01T02:05:11.422Z,5.00
2023-03-01T02:07:41.388Z,5.00
2023-03-01T02:10:09.449Z,5.00
2023-03-01T02:12:38.869Z,5.00
2023-03-01T02:15:06.759Z,5.10
2023-03-01T02:17:34.777Z,5.00
2023-03-01T02:20:13.735Z,5.00
2023-03-01T02:22:41.199Z,5.00
2023-03-01T02:25:19.522Z,5.00
2023-03-01T02:28:16.821Z,5.00
2023-03-01T02:31:09.241Z,5.00
2023-03-01T02:33:39.743Z,4.90
2023-03-01T02:36:14.930Z,4.90
2023-03-01T02:38:43.721Z,4.90
2023-03-01T02:41:16.051Z,5.00
2023-03-01T02:43:43.312Z,4.90
2023-03-01T02:46:19.057Z,4.90
2023-03-01T02:49:23.645Z,4.90
2023-03-01T02:52:29.870Z,4.90
2023-03-01T02:55:12.878Z,4.90
2023-03-01T02:57:45.881Z,4.90
2023-03-01T03:00:22.755Z,4.90
2023-03-01T03:02:53.047Z,4.90
2023-03-01T03:05:29.935Z,4.90
2023-03-01T03:07:57.744Z,4.80
2023-03-01T03:10:32.370Z,4.80
2023-03-01T03:13:04.094Z,4.80
2023-03-01T03:15:31.317Z,4.80
2023-03-01T03:18:00.074Z,4.80
2023-03-01T03:20:29.411Z,4.80
2023-03-01T03:22:59.677Z,4.70
2023-03-01T03:25:29.375Z,4.80
2023-03-01T03:27:57.918Z,4.70
2023-03-01T03:30:33.777Z,4.70
2023-03-01T03:33:01.037Z,4.70
2023-03-01T03:35:32.679Z,4.70
2023-03-01T03:38:04.859Z,4.70
2023-03-01T03:40:38.798Z,4.70
2023-03-01T03:43:15.853Z,4.70
2023-03-01T03:45:45.328Z,4.70
2023-03-01T03:48:12.257Z,4.60
2023-03-01T03:50:40.980Z,4.70
2023-03-01T03:53:12.699Z,4.60
2023-03-01T03:55:40.416Z,4.60
2023-03-01T03:58:11.254Z,4.70
2023-03-01T04:00:40.354Z,4.60
2023-03-01T04:03:08.153Z,4.60
2023-03-01T04:05:36.892Z,4.70
2023-03-01T04:08:04.635Z,4.60
2023-03-01T04:10:36.744Z,4.60
2023-03-01T04:13:04.592Z,4.60
2023-03-01T04:15:33.372Z,4.60
2023-03-01T04:18:00.734Z,4.60
2023-03-01T04:20:31.679Z,4.50
2023-03-01T04:23:09.515Z,4.50
2023-03-01T04:25:36.360Z,4.60
2023-03-01T04:28:03.294Z,4.50
2023-03-01T04:30:30.203Z,4.50
2023-03-01T04:32:57.033Z,4.50
2023-03-01T04:35:23.932Z,4.60
2023-03-01T04:37:50.940Z,4.50
2023-03-01T04:40:18.123Z,4.50
2023-03-01T04:42:44.954Z,4.50
2023-03-01T04:45:15.015Z,4.50
2023-03-01T04:47:45.174Z,4.50
2023-03-01T04:50:15.397Z,4.50
2023-03-01T04:52:42.510Z,4.50
2023-03-01T04:55:10.437Z,4.40
2023-03-01T04:57:37.440Z,4.40
2023-03-01T05:00:20.928Z,4.40
2023-03-01T05:03:01.403Z,4.40
2023-03-01T05:05:35.041Z,4.30
2023-03-01T05:08:05.618Z,4.30
2023-03-01T05:10:36.233Z,4.30
2023-03-01T05:13:04.928Z,4.20
2023-03-01T05:15:32.780Z,4.30
2023-03-01T05:18:01.154Z,4.20
2023-03-01T05:20:31.999Z,4.20
2023-03-01T05:23:01.063Z,4.20
2023-03-01T05:25:33.965Z,4.20
2023-03-01T05:28:05.341Z,4.10
2023-03-01T05:30:34.248Z,4.10
2023-03-01T05:33:02.112Z,4.10
2023-03-01T05:35:30.670Z,4.10
2023-03-01T05:37:57.602Z,4.10
2023-03-01T05:40:25.705Z,4.00
2023-03-01T05:42:57.534Z,4.00
2023-03-01T05:45:27.377Z,4.00
2023-03-01T05:47:56.060Z,4.00
2023-03-01T05:50:33.256Z,4.00
2023-03-01T05:53:06.784Z,4.00
2023-03-01T05:55:33.980Z,4.00
2023-03-01T05:58:07.170Z,3.90
2023-03-01T06:00:34.550Z,3.90
2023-03-01T06:03:02.288Z,3.90
2023-03-01T06:05:29.907Z,3.90
2023-03-01T06:08:00.250Z,3.80
2023-03-01T06:10:27.196Z,3.80
2023-03-01T06:12:55.120Z,3.80
2023-03-01T06:15:23.122Z,3.80
2023-03-01T06:17:50.500Z,3.80
2023-03-01T06:20:20.191Z,3.80
2023-03-01T06:22:48.831Z,3.90
2023-03-01T06:25:19.821Z,3.90
2023-03-01T06:27:47.845Z,3.90
2023-03-01T06:30:18.134Z,3.90
2023-03-01T06:32:45.106Z,4.00
2023-03-01T06:35:14.468Z,4.00
2023-03-01T06:37:42.504Z,4.00
2023-03-01T06:40:12.691Z,4.10
2023-03-01T06:42:43.039Z,4.10
2023-03-01T06:45:11.047Z,4.20
2023-03-01T06:47:37.956Z,4.10
2023-03-01T06:50:05.223Z,4.20
2023-03-01T06:52:32.607Z,4.20
2023-03-01T06:55:00.114Z,4.20
2023-03-01T06:57:27.550Z,4.30
2023-03-01T06:59:54.443Z,4.30
2023-03-01T07:02:21.348Z,4.30
2023-03-01T07:04:51.569Z,4.40
2023-03-01T07:07:19.559Z,4.30
2023-03-01T07:09:49.112Z,4.40
2023-03-01T07:12:16.653Z,4.30
2023-03-01T07:14:45.322Z,4.30
2023-03-01T07:17:12.302Z,4.30
2023-03-01T07:19:39.202Z,4.30
2023-03-01T07:22:08.785Z,4.30
2023-03-01T07:24:35.780Z,4.30
2023-03-01T07:27:02.653Z,4.40
2023-03-01T07:29:29.867Z,4.50
2023-03-01T07:31:56.841Z,4.40
2023-03-01T07:34:23.825Z,4.40
2023-03-01T07:36:50.745Z,4.50
2023-03-01T07:39:19.633Z,4.50
2023-03-01T07:41:46.880Z,4.40
2023-03-01T07:44:13.804Z,4.40
2023-03-01T07:46:40.644Z,4.50
2023-03-01T07:49:07.550Z,4.50
2023-03-01T07:51:34.460Z,4.50
2023-03-01T07:54:01.506Z,4.50
2023-03-01T07:56:28.415Z,4.50
2023-03-01T07:58:55.317Z,4.60
2023-03-01T08:01:23.177Z,4.60
2023-03-01T08:03:50.009Z,4.60
2023-03-01T08:06:18.575Z,4.60
2023-03-01T08:08:46.660Z,4.60
2023-03-01T08:11:16.485Z,4.70
2023-03-01T08:13:44.688Z,4.80
2023-03-01T08:16:15.426Z,4.80
2023-03-01T08:18:44.055Z,4.80
2023-03-01T08:21:14.671Z,4.80
2023-03-01T08:23:43.036Z,4.90
2023-03-01T08:26:29.660Z,4.90
2023-03-01T08:28:57.262Z,4.90
2023-03-01T08:31:33.132Z,5.00
2023-03-01T08:34:03.454Z,5.10
2023-03-01T08:36:35.976Z,5.10
2023-03-01T08:39:03.701Z,5.10
2023-03-01T08:41:31.416Z,5.10
2023-03-01T08:44:01.683Z,5.10
2023-03-01T08:46:41.569Z,5.20
2023-03-01T08:49:13.538Z,5.20
2023-03-01T08:51:41.623Z,5.30
2023-03-01T08:54:15.820Z,5.30
2023-03-01T08:56:43.500Z,5.40
2023-03-01T08:59:12.567Z,5.40
2023-03-01T09:01:41.128Z,5.50
2023-03-01T09:06:36.083Z,5.60
2023-03-01T09:09:05.923Z,5.60
2023-03-01T09:11:34.159Z,5.70
2023-03-01T09:14:01.189Z,5.70
2023-03-01T09:16:28.308Z,5.80
2023-03-01T09:18:56.153Z,5.80
2023-03-01T09:21:39.476Z,5.80
2023-03-01T09:24:14.672Z,5.90
2023-03-01T09:26:41.699Z,5.90
2023-03-01T09:29:10.505Z,6.00
2023-03-01T09:31:37.632Z,6.00
2023-03-01T09:34:04.851Z,6.10
2023-03-01T09:36:32.842Z,6.10
2023-03-01T09:39:01.223Z,6.20
2023-03-01T09:41:45.989Z,6.30
2023-03-01T09:44:36.048Z,6.40
2023-03-01T09:47:04.122Z,6.50
2023-03-01T09:49:49.737Z,6.50
2023-03-01T09:52:22.840Z,6.60
2023-03-01T09:54:55.643Z,6.60
2023-03-01T09:57:44.770Z,6.60
2023-03-01T10:00:23.746Z,6.70
2023-03-01T10:03:40.286Z,6.80
2023-03-01T10:06:34.555Z,6.90
2023-03-01T10:09:14.831Z,6.90
2023-03-01T10:11:55.036Z,7.00
2023-03-01T10:14:38.963Z,7.10
2023-03-01T10:17:28.887Z,7.10
2023-03-01T10:20:11.612Z,7.10
2023-03-01T10:22:38.415Z,7.30
2023-03-01T10:25:06.591Z,7.30
2023-03-01T10:27:58.233Z,7.30
2023-03-01T10:30:42.974Z,7.40
2023-03-01T10:33:22.538Z,7.60
2023-03-01T10:35:49.598Z,7.70
2023-03-01T10:38:19.195Z,7.80
2023-03-01T10:41:00.641Z,8.00
2023-03-01T10:43:46.531Z,8.40
2023-03-01T10:46:32.912Z,8.90
2023-03-01T10:49:19.118Z,9.60
2023-03-01T10:51:50.960Z,10.40
2023-03-01T10:54:24.718Z,11.20
2023-03-01T10:56:58.938Z,11.80
2023-03-01T10:59:31.552Z,12.00
2023-03-01T11:02:25.973Z,12.00
2023-03-01T11:05:24.851Z,11.90
2023-03-01T11:07:56.016Z,12.00
2023-03-01T11:10:36.829Z,12.20
2023-03-01T11:13:21.800Z,12.40
2023-03-01T11:16:12.668Z,12.70
2023-03-01T11:18:48.021Z,13.00
2023-03-01T11:21:17.858Z,13.20
2023-03-01T11:23:47.902Z,13.30
2023-03-01T11:26:18.609Z,13.30
2023-03-01T11:28:52.789Z,13.30
2023-03-01T11:31:20.879Z,13.20
2023-03-01T11:34:08.978Z,13.10
2023-03-01T11:37:00.206Z,12.90
2023-03-01T11:39:39.724Z,12.60
2023-03-01T11:42:43.436Z,12.30
2023-03-01T11:45:13.717Z,11.90
2023-03-01T11:48:07.194Z,11.70
2023-03-01T11:50:42.094Z,11.50
2023-03-01T11:53:30.607Z,11.30
2023-03-01T11:56:24.195Z,11.30
2023-03-01T11:59:19.426Z,11.10
2023-03-01T12:01:49.260Z,11.00
2023-03-01T12:04:34.521Z,10.80
2023-03-01T12:07:13.014Z,10.70
2023-03-01T12:10:27.695Z,10.60
2023-03-01T12:13:54.857Z,10.50
2023-03-01T12:16:58.225Z,10.50
2023-03-01T12:20:12.076Z,10.50
2023-03-01T12:23:33.124Z,10.50
2023-03-01T12:26:37.235Z,10.50
2023-03-01T12:29:32.405Z,10.50
2023-03-01T12:32:43.296Z,10.60
2023-03-01T12:35:21.745Z,10.60
2023-03-01T12:38:14.312Z,10.60
2023-03-01T12:41:22.539Z,10.50
2023-03-01T12:44:04.172Z,10.50
2023-03-01T12:47:10.436Z,10.40
2023-03-01T12:49:50.882Z,10.40
2023-03-01T12:52:38.990Z,10.40
2023-03-01T12:55:25.842Z,10.30
2023-03-01T12:58:10.635Z,10.30
2023-03-01T13:00:52.399Z,10.20
2023-03-01T13:03:53.557Z,10.30
2023-03-01T13:06:43.731Z,10.30
2023-03-01T13:09:49.069Z,10.40
2023-03-01T13:12:50.415Z,10.40
2023-03-01T13:15:23.404Z,10.50
2023-03-01T13:18:16.520Z,10.50
2023-03-01T13:20:43.284Z,10.50
2023-03-01T13:23:28.446Z,10.50
2023-03-01T13:26:00.895Z,10.60
2023-03-01T13:28:52.118Z,10.60
2023-03-01T13:31:23.695Z,10.70
2023-03-01T13:33:51.681Z,10.70
2023-03-01T13:36:31.664Z,10.70
2023-03-01T13:39:01.908Z,10.70
2023-03-01T13:41:43.993Z,10.80
2023-03-01T13:44:28.262Z,10.80
2023-03-01T13:47:09.364Z,10.90
2023-03-01T13:50:01.249Z,10.90
2023-03-01T13:52:45.419Z,11.00
2023-03-01T13:55:15.066Z,11.00
2023-03-01T13:57:47.321Z,11.00
2023-03-01T14:00:37.777Z,11.00
2023-03-01T14:03:14.166Z,11.00
2023-03-01T14:06:13.733Z,11.10
2023-03-01T14:08:43.201Z,11.10
2023-03-01T14:11:30.526Z,11.30
2023-03-01T14:14:36.926Z,11.30
2023-03-01T14:17:22.782Z,11.30
2023-03-01T14:19:58.654Z,11.30
2023-03-01T14:22:32.873Z,11.40
2023-03-01T14:25:17.714Z,11.50
2023-03-01T14:27:45.411Z,11.60
2023-03-01T14:30:32.559Z,11.70
2023-03-01T14:33:04.017Z,11.80
2023-03-01T14:35:37.570Z,12.00
2023-03-01T14:38:04.514Z,12.20
2023-03-01T14:40:36.244Z,12.50
2023-03-01T14:43:13.089Z,12.80
2023-03-01T14:45:40.187Z,13.20
2023-03-01T14:48:08.671Z,13.60
2023-03-01T14:50:43.229Z,13.90
2023-03-01T14:53:29.420Z,14.20
2023-03-01T14:56:03.272Z,14.30
2023-03-01T14:58:34.327Z,14.50
2023-03-01T15:01:04.834Z,14.50
2023-03-01T15:03:44.732Z,14.50
2023-03-01T15:06:15.802Z,14.40
2023-03-01T15:08:50.516Z,14.40
2023-03-01T15:11:31.481Z,14.40
2023-03-01T15:13:59.870Z,14.40
2023-03-01T15:16:35.271Z,14.50
2023-03-01T15:19:07.363Z,14.70
2023-03-01T15:21:38.153Z,14.90
2023-03-01T15:24:21.376Z,15.20
2023-03-01T15:27:07.888Z,15.50
2023-03-01T15:29:41.450Z,15.80
2023-03-01T15:32:35.718Z,16.10
2023-03-01T15:35:49.314Z,16.40
2023-03-01T15:38:55.130Z,16.70
2023-03-01T15:41:34.344Z,17.00
2023-03-01T15:44:27.923Z,17.10
2023-03-01T15:46:57.818Z,17.00
2023-03-01T15:49:53.994Z,16.90
2023-03-01T15:52:40.570Z,16.80
2023-03-01T15:55:24.644Z,16.70
2023-03-01T15:58:01.601Z,16.60
2023-03-01T16:00:29.716Z,16.70
2023-03-01T16:02:57.453Z,16.50
2023-03-01T16:05:35.931Z,16.40
2023-03-01T16:08:03.687Z,16.20
2023-03-01T16:10:32.389Z,15.90
2023-03-01T16:12:59.766Z,15.60
2023-03-01T16:15:32.632Z,15.20
2023-03-01T16:18:00.225Z,14.80
2023-03-01T16:20:32.789Z,14.40
2023-03-01T16:23:07.377Z,14.10
2023-03-01T16:25:36.794Z,13.70
2023-03-01T16:28:09.609Z,13.40
2023-03-01T16:30:40.731Z,13.00
2023-03-01T16:33:26.488Z,12.70
2023-03-01T16:35:56.871Z,12.50
2023-03-01T16:38:23.900Z,12.20
2023-03-01T16:40:53.384Z,12.00
2023-03-01T16:43:20.581Z,11.70
2023-03-01T16:45:47.631Z,11.50
2023-03-01T16:48:15.617Z,11.40
2023-03-01T16:50:42.597Z,11.20
2023-03-01T16:53:09.833Z,11.00
2023-03-01T16:55:36.806Z,10.90
2023-03-01T16:58:05.281Z,10.80
2023-03-01T17:00:32.440Z,10.60
2023-03-01T17:02:59.403Z,10.40
2023-03-01T17:06:35.054Z,10.20
2023-03-01T17:09:02.042Z,10.00
2023-03-01T17:11:29.168Z,9.80
2023-03-01T17:13:56.077Z,9.60
2023-03-01T17:16:23.555Z,9.40
2023-03-01T17:18:50.595Z,9.20
2023-03-01T17:21:17.887Z,9.00
2023-03-01T17:23:47.018Z,8.90
2023-03-01T17:26:14.246Z,8.70
2023-03-01T17:28:41.360Z,8.60
2023-03-01T17:31:08.625Z,8.40
2023-03-01T17:33:36.093Z,8.30
2023-03-01T17:36:03.335Z,8.20
2023-03-01T17:38:30.539Z,8.10
2023-03-01T17:41:01.079Z,8.00
2023-03-01T17:46:32.029Z,7.80
2023-03-01T17:48:58.952Z,7.70
2023-03-01T17:51:25.956Z,7.60
2023-03-01T17:53:52.936Z,7.50
2023-03-01T17:56:19.784Z,7.40
2023-03-01T17:58:46.908Z,7.40
2023-03-01T18:01:20.036Z,7.30
2023-03-01T18:03:47.794Z,7.30
2023-03-01T18:06:22.020Z,7.20
2023-03-01T18:08:50.709Z,7.10
2023-03-01T18:11:19.004Z,7.10
2023-03-01T18:14:10.945Z,7.00
2023-03-01T18:16:39.813Z,7.00
2023-03-01T18:19:06.839Z,7.00
2023-03-01T18:21:34.177Z,6.90
2023-03-01T18:24:01.821Z,6.80
2023-03-01T18:26:29.732Z,6.80
2023-03-01T18:29:00.948Z,6.80
2023-03-01T18:31:32.517Z,6.80
2023-03-01T18:34:01.224Z,6.70
2023-03-01T18:36:32.727Z,6.60
2023-03-01T18:39:02.249Z,6.60
2023-03-01T18:41:30.040Z,6.60
2023-03-01T18:43:57.511Z,6.60
2023-03-01T18:46:25.159Z,6.50
2023-03-01T18:48:53.695Z,6.50
2023-03-01T18:51:25.023Z,6.40
2023-03-01T18:53:52.302Z,6.40
2023-03-01T18:56:19.540Z,6.40
2023-03-01T18:58:46.471Z,6.30
2023-03-01T19:01:20.754Z,6.30
2023-03-01T19:04:21.250Z,6.30
2023-03-01T19:06:48.185Z,6.30
2023-03-01T19:09:15.632Z,6.20
2023-03-01T19:11:42.566Z,6.20
2023-03-01T19:14:53.672Z,6.10
2023-03-01T19:18:04.556Z,6.10
2023-03-01T19:20:31.527Z,6.00
2023-03-01T19:22:58.393Z,6.00
2023-03-01T19:25:29.709Z,5.90
2023-03-01T19:28:15.240Z,6.00
2023-03-01T19:30:52.892Z,5.90
2023-03-01T19:34:12.520Z,6.00
2023-03-01T19:36:44.221Z,5.80
2023-03-01T19:41:59.209Z,5.70
2023-03-01T19:44:26.165Z,5.70
2023-03-01T19:47:12.591Z,5.70
2023-03-01T19:49:41.605Z,5.60
2023-03-01T19:55:58.144Z,5.50
2023-03-01T20:01:21.913Z,5.40
2023-03-01T20:06:30.562Z,5.40
2023-03-01T20:11:44.483Z,5.20
2023-03-01T20:14:12.376Z,5.20
2023-03-01T20:16:40.212Z,5.10
2023-03-01T20:19:07.342Z,5.10
2023-03-01T20:21:36.247Z,5.10
2023-03-01T20:24:03.120Z,5.00
2023-03-01T20:26:30.427Z,5.00
2023-03-01T20:29:26.666Z,5.00
2023-03-01T20:32:36.870Z,4.90
2023-03-01T20:37:56.216Z,4.90
2023-03-01T20:40:37.194Z,4.90
2023-03-01T20:43:05.376Z,4.80
2023-03-01T20:45:32.478Z,4.80
2023-03-01T20:47:59.416Z,4.80
2023-03-01T20:50:26.373Z,4.70
2023-03-01T20:52:53.247Z,4.70
2023-03-01T20:55:20.150Z,4.70
2023-03-01T20:57:47.012Z,4.70
2023-03-01T21:00:14.546Z,4.70
2023-03-01T21:02:41.509Z,4.70
2023-03-01T21:05:09.062Z,4.70
2023-03-01T21:07:36.087Z,4.60
2023-03-01T21:10:03.487Z,4.70
2023-03-01T21:12:31.323Z,4.70
2023-03-01T21:14:58.182Z,4.60
2023-03-01T21:17:25.063Z,4.70
2023-03-01T21:19:51.925Z,4.70
2023-03-01T21:22:18.834Z,4.70
2023-03-01T21:24:45.784Z,4.70
2023-03-01T21:27:12.648Z,4.70
2023-03-01T21:29:43.164Z,4.70
2023-03-01T21:32:12.355Z,4.70
2023-03-01T21:34:41.253Z,4.70
2023-03-01T21:37:10.421Z,4.80
2023-03-01T21:39:37.970Z,4.70
2023-03-01T21:42:06.072Z,4.70
2023-03-01T21:44:34.056Z,4.70
2023-03-01T21:47:00.959Z,4.70
2023-03-01T21:49:28.014Z,4.70
2023-03-01T21:51:55.584Z,4.70
2023-03-01T21:54:22.671Z,4.80
2023-03-01T21:56:50.852Z,4.80
2023-03-01T21:59:22.412Z,4.80
2023-03-01T22:01:51.743Z,4.80
2023-03-01T22:04:20.074Z,4.70
2023-03-01T22:06:47.451Z,4.70
2023-03-01T22:09:15.880Z,4.70
2023-03-01T22:11:53.932Z,4.70
2023-03-01T22:14:21.365Z,4.70
2023-03-01T22:16:51.384Z,4.80
2023-03-01T22:19:19.405Z,4.60
2023-03-01T22:21:49.952Z,4.60
2023-03-01T22:24:20.773Z,4.70
2023-03-01T22:26:48.745Z,4.60
2023-03-01T22:29:36.273Z,4.70
2023-03-01T22:32:03.277Z,4.60
2023-03-01T22:34:30.662Z,4.70
2023-03-01T22:36:58.580Z,4.60
2023-03-01T22:39:25.476Z,4.60
2023-03-01T22:41:54.637Z,4.60
2023-03-01T22:44:23.630Z,4.60
2023-03-01T22:46:51.263Z,4.50
2023-03-01T22:49:19.460Z,4.60
2023-03-01T22:51:49.637Z,4.50
2023-03-01T22:54:18.687Z,4.50
2023-03-01T22:56:46.469Z,4.50
2023-03-01T22:59:19.051Z,4.50
2023-03-01T23:01:48.163Z,4.50
2023-03-01T23:04:16.800Z,4.40
2023-03-01T23:06:55.630Z,4.40
2023-03-01T23:09:32.679Z,4.40
2023-03-01T23:12:01.958Z,4.40
2023-03-01T23:14:32.172Z,4.40
2023-03-01T23:17:02.528Z,4.40
2023-03-01T23:19:30.148Z,4.30
2023-03-01T23:21:57.824Z,4.30
2023-03-01T23:24:31.116Z,4.30
2023-03-01T23:27:00.651Z,4.40
2023-03-01T23:29:27.553Z,4.30
2023-03-01T23:31:58.498Z,4.30
2023-03-01T23:34:27.335Z,4.30
2023-03-01T23:36:55.428Z,4.30
2023-03-01T23:39:22.462Z,4.20
2023-03-01T23:41:49.476Z,4.20
2023-03-01T23:44:19.810Z,4.20
2023-03-01T23:46:48.379Z,4.20
2023-03-01T23:49:19.056Z,4.20
2023-03-01T23:51:47.704Z,4.10
2023-03-01T23:54:19.143Z,4.10
2023-03-01T23:56:46.787Z,4.10
2023-03-01T23:59:17.770Z,4.00
